createdAt,value
2023-04-15T04:52:30.717Z,3.42
2023-04-15T04:54:57.449Z,2.63
2023-04-15T04:57:24.321Z,3.67
2023-04-15T04:59:52.916Z,3.42
2023-04-15T05:02:20.201Z,3.20
2023-04-15T05:04:47.043Z,3.22
2023-04-15T05:07:13.812Z,3.05
2023-04-15T05:09:41.321Z,3.40
2023-04-15T05:12:09.362Z,3.10
2023-04-15T05:14:36.369Z,3.15
2023-04-15T05:17:03.795Z,3.58
2023-04-15T05:19:30.954Z,3.40
2023-04-15T05:22:00.849Z,3.05
2023-04-15T05:24:29.408Z,3.55
2023-04-15T05:29:43.382Z,3.38
2023-04-15T05:32:12.067Z,3.45
2023-04-15T05:34:38.952Z,3.00
2023-04-15T05:37:06.056Z,3.42
2023-04-15T05:39:32.972Z,3.20
2023-04-15T05:42:00.839Z,3.45
2023-04-15T05:44:28.077Z,2.83
2023-04-15T05:46:54.969Z,3.20
2023-04-15T05:49:21.805Z,4.40
2023-04-15T05:51:48.864Z,3.53
2023-04-15T05:54:17.716Z,3.95
2023-04-15T05:56:46.244Z,3.75
2023-04-15T05:59:13.245Z,3.30
2023-04-15T06:01:40.653Z,4.32
2023-04-15T06:04:07.590Z,3.78
2023-04-15T06:06:37.083Z,3.85
2023-04-15T06:09:04.784Z,3.45
2023-04-15T06:11:31.669Z,3.65
2023-04-15T06:13:58.501Z,3.10
2023-04-15T06:16:25.322Z,3.55
2023-04-15T06:18:52.389Z,3.42
2023-04-15T06:21:19.634Z,3.60
2023-04-15T06:23:46.570Z,4.22
2023-04-15T06:26:13.524Z,3.50
2023-04-15T06:28:40.415Z,4.38
2023-04-15T06:31:07.299Z,4.15
2023-04-15T06:33:35.357Z,4.47
2023-04-15T06:36:02.507Z,4.68
2023-04-15T06:38:29.375Z,4.50
2023-04-15T06:40:56.556Z,4.40
2023-04-15T06:43:23.729Z,4.53
2023-04-15T06:45:51.019Z,4.90
2023-04-15T06:48:18.719Z,5.35
2023-04-15T06:50:45.558Z,4.55
2023-04-15T06:53:12.721Z,4.97
2023-04-15T06:55:41.578Z,5.00
2023-04-15T06:58:09.835Z,4.82
2023-04-15T07:00:39.092Z,4.82
2023-04-15T07:03:06.305Z,5.03
2023-04-15T07:05:36.007Z,4.93
2023-04-15T07:08:04.829Z,5.05
2023-04-15T07:10:32.037Z,5.10
2023-04-15T07:13:00.261Z,4.22
2023-04-15T07:15:29.715Z,4.82
2023-04-15T07:17:57.624Z,5.40
2023-04-15T07:20:25.239Z,5.70
2023-04-15T07:22:52.839Z,5.05
2023-04-15T07:25:19.823Z,5.03
2023-04-15T07:27:48.213Z,5.85
2023-04-15T07:30:21.234Z,5.88
2023-04-15T07:35:21.193Z,6.22
2023-04-15T07:37:48.615Z,5.97
2023-04-15T07:40:17.843Z,5.70
2023-04-15T07:42:45.603Z,5.78
2023-04-15T07:45:13.626Z,6.25
2023-04-15T07:47:43.913Z,5.57
2023-04-15T07:50:29.590Z,6.15
2023-04-15T07:55:40.107Z,5.47
2023-04-15T07:58:07.610Z,5.53
2023-04-15T08:00:37.498Z,6.78
2023-04-15T08:03:07.906Z,6.45
2023-04-15T08:05:41.940Z,5.47
2023-04-15T08:08:09.218Z,6.43
2023-04-15T08:10:38.472Z,6.38
2023-04-15T08:13:06.096Z,9.90
2023-04-15T08:15:33.810Z,7.55
2023-04-15T08:18:01.508Z,6.80
2023-04-15T08:20:30.077Z,7.57
2023-04-15T08:22:59.453Z,6.50
2023-04-15T08:25:35.214Z,6.45
2023-04-15T08:28:07.203Z,6.75
2023-04-15T08:33:20.029Z,6.38
2023-04-15T08:35:48.054Z,6.63
2023-04-15T08:38:18.653Z,7.90
2023-04-15T08:40:47.240Z,6.93
2023-04-15T08:43:23.448Z,7.72
2023-04-15T08:45:52.237Z,6.75
2023-04-15T08:48:19.540Z,8.38
2023-04-15T08:50:48.015Z,7.07
2023-04-15T08:53:15.890Z,7.72
2023-04-15T08:55:51.493Z,7.55
2023-04-15T08:58:26.365Z,8.20
2023-04-15T09:00:54.036Z,7.10
2023-04-15T09:06:06.698Z,6.72
2023-04-15T09:08:39.104Z,6.75
2023-04-15T09:14:00.828Z,7.63
2023-04-15T09:19:24.392Z,6.65
2023-04-15T09:22:01.864Z,6.80
2023-04-15T09:24:39.937Z,6.03
2023-04-15T09:27:12.797Z,2.63
2023-04-15T09:29:43.475Z,4.07
2023-04-15T09:32:15.560Z,2.53
2023-04-15T09:34:43.893Z,5.43
2023-04-15T09:37:31.591Z,2.20
2023-04-15T09:39:58.998Z,1.50
2023-04-15T09:42:28.719Z,2.13
2023-04-15T09:44:56.774Z,1.67
2023-04-15T09:47:30.563Z,2.22
2023-04-15T09:49:58.570Z,1.85
2023-04-15T09:52:26.018Z,1.88
2023-04-15T09:54:57.754Z,1.63
2023-04-15T09:57:25.015Z,1.70
2023-04-15T09:59:52.549Z,1.90
2023-04-15T10:02:21.519Z,1.98
2023-04-15T10:04:49.645Z,1.98
2023-04-15T10:07:21.734Z,2.45
2023-04-15T10:09:52.504Z,2.05
2023-04-15T10:12:20.818Z,1.63
2023-04-15T10:15:00.114Z,1.58
2023-04-15T10:17:31.740Z,1.52
2023-04-15T10:20:03.830Z,1.80
2023-04-15T10:22:32.149Z,1.38
2023-04-15T10:25:00.393Z,1.83
2023-04-15T10:30:19.750Z,1.92
2023-04-15T10:35:35.429Z,1.40
2023-04-15T10:38:05.223Z,2.00
2023-04-15T10:40:38.022Z,1.92
2023-04-15T10:43:06.528Z,2.15
2023-04-15T10:45:38.233Z,2.50
2023-04-15T10:48:10.093Z,2.78
2023-04-15T10:50:38.224Z,1.90
2023-04-15T10:53:06.196Z,1.67
2023-04-15T10:55:34.896Z,1.80
2023-04-15T10:58:04.031Z,2.00
2023-04-15T11:00:33.356Z,1.83
2023-04-15T11:03:08.943Z,2.13
2023-04-15T11:05:57.359Z,1.70
2023-04-15T11:08:55.471Z,3.08
2023-04-15T11:11:23.611Z,2.63
2023-04-15T11:13:52.446Z,3.10
2023-04-15T11:16:19.687Z,3.35
2023-04-15T11:19:05.795Z,3.40
2023-04-15T11:21:34.443Z,3.50
2023-04-15T11:24:02.267Z,3.53
2023-04-15T11:26:30.336Z,3.58
2023-04-15T11:28:57.402Z,4.65
2023-04-15T11:31:28.971Z,3.47
2023-04-15T11:33:56.487Z,3.15
2023-04-15T11:36:38.573Z,3.60
2023-04-15T11:39:07.954Z,3.00
2023-04-15T11:41:36.836Z,2.80
2023-04-15T11:44:03.925Z,6.55
2023-04-15T11:46:32.440Z,2.10
2023-04-15T11:49:00.278Z,3.97
2023-04-15T11:51:32.096Z,2.30
2023-04-15T11:53:59.181Z,3.35
2023-04-15T11:56:35.601Z,2.92
2023-04-15T11:59:03.429Z,3.58
2023-04-15T12:01:44.692Z,2.45
2023-04-15T12:04:22.582Z,4.60
2023-04-15T12:07:01.493Z,3.17
2023-04-15T12:09:30.903Z,3.33
2023-04-15T12:11:59.292Z,3.60
2023-04-15T12:14:40.328Z,3.28
2023-04-15T12:17:07.485Z,2.70
2023-04-15T12:19:39.771Z,4.05
2023-04-15T12:22:10.477Z,2.95
2023-04-15T12:24:38.713Z,3.22
2023-04-15T12:27:12.344Z,2.72
2023-04-15T12:29:40.574Z,2.30
2023-04-15T12:32:52.980Z,2.40
2023-04-15T12:35:21.594Z,1.67
2023-04-15T12:37:48.595Z,2.60
2023-04-15T12:40:15.968Z,1.98
2023-04-15T12:42:43.185Z,2.40
2023-04-15T12:45:10.304Z,2.83
2023-04-15T12:47:37.465Z,2.70
2023-04-15T12:50:04.771Z,3.17
2023-04-15T12:52:31.579Z,3.47
2023-04-15T12:54:58.767Z,3.35
2023-04-15T12:57:25.603Z,4.45
2023-04-15T12:59:52.774Z,5.25
2023-04-15T13:02:21.483Z,4.13
2023-04-15T13:04:48.776Z,4.57
2023-04-15T13:07:16.832Z,4.75
2023-04-15T13:09:44.186Z,5.07
2023-04-15T13:12:14.095Z,4.57
2023-04-15T13:14:49.690Z,4.68
2023-04-15T13:17:19.224Z,4.75
2023-04-15T13:19:46.761Z,5.03
2023-04-15T13:22:15.113Z,6.82
2023-04-15T13:24:42.012Z,5.30
2023-04-15T13:27:09.283Z,5.35
2023-04-15T13:29:36.413Z,6.43
2023-04-15T13:32:03.422Z,5.43
2023-04-15T13:34:30.819Z,5.13
2023-04-15T13:36:58.080Z,4.68
2023-04-15T13:39:25.148Z,5.30
2023-04-15T13:41:52.133Z,4.97
2023-04-15T13:44:20.890Z,4.90
2023-04-15T13:46:48.763Z,4.30
2023-04-15T13:49:16.617Z,4.00
2023-04-15T13:51:43.553Z,3.90
2023-04-15T13:54:10.792Z,4.65
2023-04-15T13:56:38.549Z,5.80
2023-04-15T13:59:07.002Z,6.07
2023-04-15T14:01:35.184Z,5.57
2023-04-15T14:04:02.627Z,5.97
2023-04-15T14:06:31.750Z,6.65
2023-04-15T14:08:58.936Z,7.95
2023-04-15T14:11:26.482Z,6.55
2023-04-15T14:13:53.670Z,8.15
2023-04-15T14:16:21.449Z,8.98
2023-04-15T14:18:48.764Z,8.48
2023-04-15T14:21:17.005Z,9.00
2023-04-15T14:23:44.371Z,8.98
2023-04-15T14:26:11.839Z,9.23
2023-04-15T14:28:39.257Z,11.95
2023-04-15T14:31:07.502Z,9.25
2023-04-15T14:33:34.390Z,7.63
2023-04-15T14:36:01.549Z,7.63
2023-04-15T14:38:28.597Z,6.72
2023-04-15T14:40:55.695Z,6.40
2023-04-15T14:43:23.843Z,5.43
2023-04-15T14:45:52.076Z,6.70
2023-04-15T14:48:19.089Z,5.25
2023-04-15T14:50:48.163Z,5.28
2023-04-15T14:53:17.448Z,5.72
2023-04-15T14:55:45.919Z,7.95
2023-04-15T14:58:12.971Z,6.40
2023-04-15T15:00:42.940Z,5.22
2023-04-15T15:03:16.254Z,4.78
2023-04-15T15:05:52.735Z,4.97
2023-04-15T15:08:20.653Z,5.00
2023-04-15T15:10:48.629Z,5.30
2023-04-15T15:13:17.632Z,5.60
2023-04-15T15:15:47.078Z,5.10
2023-04-15T15:18:14.170Z,5.72
2023-04-15T15:20:41.192Z,6.82
2023-04-15T15:23:11.500Z,10.57
2023-04-15T15:25:38.762Z,10.57
2023-04-15T15:28:06.736Z,12.50
2023-04-15T15:30:34.050Z,14.25
2023-04-15T15:33:01.045Z,15.30
2023-04-15T15:35:28.094Z,15.40
2023-04-15T15:37:55.962Z,15.05
2023-04-15T15:40:22.900Z,15.80
2023-04-15T15:42:51.031Z,15.15
2023-04-15T15:45:18.327Z,16.33
2023-04-15T15:47:45.247Z,14.60
2023-04-15T15:50:14.030Z,13.18
2023-04-15T15:52:41.331Z,13.02
2023-04-15T15:55:08.750Z,12.63
2023-04-15T15:57:35.613Z,14.07
2023-04-15T16:02:59.838Z,15.23
2023-04-15T16:05:20.441Z,15.32
2023-04-15T16:07:47.232Z,16.50
2023-04-15T16:10:14.299Z,17.20
2023-04-15T16:12:44.893Z,16.23
2023-04-15T16:15:12.991Z,17.75
2023-04-15T16:17:39.973Z,18.25
2023-04-15T16:20:07.675Z,18.67
2023-04-15T16:22:35.160Z,16.38
2023-04-15T16:25:02.845Z,16.38
2023-04-15T16:27:30.549Z,14.88
2023-04-15T16:29:57.547Z,13.93
2023-04-15T16:32:24.660Z,12.90
2023-04-15T16:34:52.975Z,13.38
2023-04-15T16:37:21.167Z,14.00
2023-04-15T16:39:48.252Z,13.52
2023-04-15T16:42:15.477Z,13.57
2023-04-15T16:44:42.635Z,13.88
2023-04-15T16:47:12.326Z,13.32
2023-04-15T16:49:39.294Z,13.75
2023-04-15T16:52:07.039Z,13.23
2023-04-15T16:54:35.349Z,13.07
2023-04-15T16:57:03.091Z,13.35
2023-04-15T16:59:30.738Z,12.38
2023-04-15T17:01:57.846Z,12.32
2023-04-15T17:04:25.089Z,14.13
2023-04-15T17:06:53.341Z,13.93
2023-04-15T17:09:20.600Z,14.40
2023-04-15T17:11:48.270Z,12.73
2023-04-15T17:14:15.248Z,13.75
2023-04-15T17:16:43.191Z,13.73
2023-04-15T17:19:11.193Z,13.10
2023-04-15T17:21:38.642Z,12.45
2023-04-15T17:24:06.474Z,13.13
2023-04-15T17:26:33.590Z,13.07
2023-04-15T17:29:01.245Z,13.63
2023-04-15T17:31:29.845Z,13.43
2023-04-15T17:34:02.568Z,12.55
2023-04-15T17:36:35.027Z,12.80
2023-04-15T17:39:02.215Z,14.07
2023-04-15T17:41:29.200Z,14.55
2023-04-15T17:43:56.372Z,13.80
2023-04-15T17:46:23.580Z,15.60
2023-04-15T17:48:52.968Z,14.63
2023-04-15T17:51:20.676Z,13.80
2023-04-15T17:53:47.813Z,11.48
2023-04-15T17:56:14.727Z,11.82
2023-04-15T17:58:41.689Z,10.15
2023-04-15T18:01:08.955Z,9.45
2023-04-15T18:03:37.162Z,8.63
2023-04-15T18:06:04.895Z,8.70
2023-04-15T18:08:32.107Z,8.50
2023-04-15T18:11:02.137Z,7.47
2023-04-15T18:13:34.024Z,6.10
2023-04-15T18:16:01.682Z,5.90
2023-04-15T18:18:29.396Z,6.30
2023-04-15T18:20:56.659Z,7.03
2023-04-15T18:23:25.693Z,7.53
2023-04-15T18:25:56.118Z,7.32
2023-04-15T18:28:23.288Z,8.38
2023-04-15T18:30:50.393Z,8.00
2023-04-15T18:33:18.069Z,7.47
2023-04-15T18:35:45.279Z,7.40
2023-04-15T18:38:12.443Z,7.32
2023-04-15T18:40:39.615Z,8.13
2023-04-15T18:43:06.954Z,8.00
2023-04-15T18:45:33.984Z,8.38
2023-04-15T18:48:08.873Z,7.97
2023-04-15T18:50:36.163Z,7.75
2023-04-15T18:53:03.044Z,6.80
2023-04-15T18:55:30.314Z,6.32
2023-04-15T18:57:57.151Z,7.00
2023-04-15T19:00:41.704Z,6.57
2023-04-15T19:03:15.898Z,6.82
2023-04-15T19:06:08.445Z,7.93
2023-04-15T19:08:49.954Z,6.93
2023-04-15T19:11:20.170Z,7.22
2023-04-15T19:13:57.629Z,7.07
2023-04-15T19:16:26.162Z,7.93
2023-04-15T19:19:06.576Z,9.77
2023-04-15T19:21:50.444Z,11.63
2023-04-15T19:24:26.522Z,13.85
2023-04-15T19:27:19.614Z,14.68
2023-04-15T19:30:09.111Z,15.55
2023-04-15T19:35:34.610Z,16.58
2023-04-15T19:38:09.745Z,16.10
2023-04-15T19:40:41.502Z,16.83
2023-04-15T19:46:10.045Z,15.68
2023-04-15T19:48:41.019Z,15.40
2023-04-15T19:51:13.137Z,14.10
2023-04-15T19:53:49.041Z,12.77
2023-04-15T19:56:19.221Z,13.45
2023-04-15T19:58:53.018Z,20.08
2023-04-15T20:01:57.331Z,12.30
2023-04-15T20:04:38.292Z,12.18
2023-04-15T20:07:11.277Z,11.27
2023-04-15T20:09:52.296Z,12.38
2023-04-15T20:12:50.925Z,11.82
2023-04-15T20:15:34.250Z,11.13
2023-04-15T20:18:12.849Z,9.75
2023-04-15T20:20:50.792Z,9.82
2023-04-15T20:23:22.460Z,10.20
2023-04-15T20:25:55.356Z,10.07
2023-04-15T20:31:01.388Z,11.02
2023-04-15T20:33:44.919Z,11.15
2023-04-15T20:36:22.557Z,11.98
2023-04-15T20:38:56.036Z,11.00
2023-04-15T20:41:42.185Z,11.75
2023-04-15T20:44:09.307Z,11.60
2023-04-15T20:46:36.651Z,11.55
2023-04-15T20:49:07.111Z,11.25
2023-04-15T20:51:38.424Z,11.68
2023-04-15T20:54:06.458Z,11.70
2023-04-15T20:56:34.049Z,17.92
2023-04-15T20:59:01.724Z,13.32
2023-04-15T21:01:29.014Z,12.82
2023-04-15T21:03:56.264Z,14.18
2023-04-15T21:06:23.198Z,13.45
2023-04-15T21:08:52.611Z,13.10
2023-04-15T21:11:38.741Z,12.82
2023-04-15T21:14:08.251Z,13.25
2023-04-15T21:16:35.331Z,13.30
2023-04-15T21:19:02.593Z,13.48
2023-04-15T21:21:29.532Z,13.10
2023-04-15T21:23:56.743Z,14.13
2023-04-15T21:26:23.556Z,14.48
2023-04-15T21:28:50.405Z,14.32
2023-04-15T21:31:17.601Z,13.65
2023-04-15T21:33:44.507Z,13.65
2023-04-15T21:36:11.776Z,13.55
2023-04-15T21:38:38.902Z,15.23
2023-04-15T21:41:10.668Z,14.57
2023-04-15T21:43:37.922Z,12.93
2023-04-15T21:46:22.223Z,13.15
2023-04-15T21:48:53.067Z,13.18
2023-04-15T21:51:20.190Z,13.70
2023-04-15T21:53:47.388Z,13.98
2023-04-15T21:56:14.712Z,13.40
2023-04-15T21:58:41.686Z,13.73
2023-04-15T22:01:09.037Z,14.18
2023-04-15T22:03:36.119Z,14.15
2023-04-15T22:06:04.285Z,14.43
2023-04-15T22:08:38.570Z,12.98
2023-04-15T22:11:09.447Z,12.10
2023-04-15T22:13:36.965Z,11.52
2023-04-15T22:16:03.934Z,11.65
2023-04-15T22:18:31.026Z,11.20
2023-04-15T22:20:58.307Z,11.27
2023-04-15T22:23:25.636Z,10.52
2023-04-15T22:25:52.782Z,10.05
2023-04-15T22:28:19.947Z,10.25
2023-04-15T22:30:47.105Z,10.65
2023-04-15T22:33:14.002Z,10.32
2023-04-15T22:35:41.272Z,11.23
2023-04-15T22:38:08.443Z,10.77
2023-04-15T22:40:35.484Z,10.57
2023-04-15T22:43:03.593Z,9.95
2023-04-15T22:45:30.473Z,11.30
2023-04-15T22:47:58.741Z,10.80
2023-04-15T22:50:26.163Z,11.13
2023-04-15T22:52:57.286Z,10.10
2023-04-15T22:55:27.237Z,10.57
2023-04-15T22:57:57.588Z,10.85
2023-04-15T23:00:25.149Z,11.60
2023-04-15T23:03:01.252Z,12.05
2023-04-15T23:05:32.783Z,11.70
2023-04-15T23:08:03.920Z,11.57
2023-04-15T23:10:31.369Z,13.20
2023-04-15T23:12:58.664Z,11.27
2023-04-15T23:15:25.863Z,12.43
2023-04-15T23:18:02.353Z,11.93
2023-04-15T23:20:29.757Z,15.05
2023-04-15T23:22:59.683Z,14.45
2023-04-15T23:25:32.038Z,14.93
2023-04-15T23:28:01.854Z,17.17
2023-04-15T23:30:30.287Z,17.27
2023-04-15T23:32:58.738Z,17.92
2023-04-15T23:35:31.281Z,20.17
2023-04-15T23:37:58.811Z,20.30
2023-04-15T23:40:32.889Z,19.58
2023-04-15T23:43:00.049Z,19.95
2023-04-15T23:45:27.118Z,20.63
2023-04-15T23:48:01.435Z,20.98
2023-04-15T23:50:28.539Z,21.65
2023-04-15T23:52:55.650Z,20.25
2023-04-15T23:55:22.555Z,21.73
2023-04-15T23:57:50.864Z,22.05
